Time;durP1;ratioP1;P1;durP2;ratioP2;P2;SDS_P1;SDS_P2;PMS_P1;PMS_P2;Temp;Humidity;BMP_temperature;BMP_pressure;BME280_temperature;BME280_humidity;BME280_pressure;Samples;Min_cycle;Max_cycle;Signal;HPM_P1;HPM_P2
2023/05/01 00:01:19;;;;;;;9.85;6.03;;;;;;;13.46;74.94;99331.94;5042227;28;20025;-72
2023/05/01 00:03:44;;;;;;;10.18;6.72;;;;;;;13.69;73.73;99327.72;5053257;28;20031;-72
2023/05/01 00:06:10;;;;;;;7.38;6.32;;;;;;;13.55;74.11;99336.56;5053807;28;20025;-71
2023/05/01 00:08:35;;;;;;;8.40;6.35;;;;;;;13.70;73.84;99329.34;5033975;28;20037;-71
2023/05/01 00:11:05;;;;;;;8.02;6.18;;;;;;;13.67;73.45;99330.06;5033578;28;20025;-71
2023/05/01 00:13:31;;;;;;;9.48;6.53;;;;;;;13.40;74.08;99336.13;5032457;28;20061;-71
2023/05/01 00:15:57;;;;;;;9.98;7.55;;;;;;;13.00;75.90;99337.78;5033709;28;20411;-71
2023/05/01 00:18:22;;;;;;;15.23;9.27;;;;;;;12.61;78.31;99329.78;5033328;28;20021;-71
2023/05/01 00:20:47;;;;;;;13.50;10.65;;;;;;;12.31;80.37;99332.84;5033635;28;20385;-71
2023/05/01 00:23:13;;;;;;;24.90;8.30;;;;;;;12.34;80.34;99328.53;5035310;28;20028;-71
2023/05/01 00:25:38;;;;;;;11.05;7.30;;;;;;;12.37;79.99;99322.19;5051000;28;20017;-71
2023/05/01 00:28:05;;;;;;;7.45;6.68;;;;;;;12.66;78.89;99322.28;5053267;28;20100;-72
2023/05/01 00:30:33;;;;;;;18.35;7.28;;;;;;;12.94;77.33;99313.94;5052166;28;20025;-71
2023/05/01 00:33:00;;;;;;;21.38;12.73;;;;;;;13.23;75.78;99326.00;5053352;28;20024;-71
2023/05/01 00:35:26;;;;;;;12.90;8.52;;;;;;;13.48;74.50;99315.53;5051790;28;20483;-71
2023/05/01 00:37:51;;;;;;;11.07;7.28;;;;;;;13.64;73.97;99303.50;5050933;28;20083;-71
2023/05/01 00:40:17;;;;;;;9.98;6.70;;;;;;;13.69;73.31;99313.66;5053108;28;20021;-71
2023/05/01 00:42:42;;;;;;;13.15;8.00;;;;;;;13.71;73.17;99311.31;5035175;28;20064;-71
2023/05/01 00:45:08;;;;;;;7.30;6.20;;;;;;;13.83;72.89;99319.66;5032638;28;20048;-71
2023/05/01 00:47:37;;;;;;;14.63;7.13;;;;;;;13.76;72.90;99319.50;5038848;28;20532;-72
2023/05/01 00:50:04;;;;;;;6.72;6.00;;;;;;;13.24;74.64;99322.03;5039483;28;20032;-71
2023/05/01 00:52:30;;;;;;;10.85;6.35;;;;;;;12.71;77.33;99336.06;5051763;28;20020;-71
2023/05/01 00:54:56;;;;;;;9.50;6.68;;;;;;;12.75;77.73;99337.81;5052749;28;20403;-71
2023/05/01 00:57:22;;;;;;;12.43;8.25;;;;;;;12.89;77.18;99328.22;5052185;28;20552;-71
2023/05/01 00:59:48;;;;;;;9.23;6.53;;;;;;;12.86;77.54;99328.94;5038063;28;20026;-72
2023/05/01 01:02:14;;;;;;;9.65;6.25;;;;;;;13.04;76.82;99330.28;5032895;28;20029;-71
2023/05/01 01:04:42;;;;;;;8.50;6.18;;;;;;;13.12;76.39;99338.91;5039543;28;20020;-71
2023/05/01 01:07:40;;;;;;;9.25;7.15;;;;;;;13.13;75.96;99343.34;5044564;28;20511;-72
2023/05/01 01:10:33;;;;;;;7.93;6.10;;;;;;;13.10;76.22;99344.06;5040104;28;20136;-72
2023/05/01 01:13:24;;;;;;;9.70;6.43;;;;;;;13.27;75.33;99338.19;5031412;28;20424;-72
2023/05/01 01:16:03;;;;;;;9.27;6.95;;;;;;;12.85;77.17;99346.94;5032518;28;20515;-71
2023/05/01 01:19:03;;;;;;;8.18;5.97;;;;;;;12.80;78.24;99344.38;5031306;28;20021;-71
2023/05/01 01:21:40;;;;;;;7.47;6.68;;;;;;;12.59;79.52;99348.16;5032235;28;20080;-72
2023/05/01 01:24:45;;;;;;;9.23;6.78;;;;;;;12.54;79.75;99337.97;5032101;28;20032;-71
2023/05/01 01:27:10;;;;;;;9.85;6.35;;;;;;;12.68;79.46;99343.22;5048697;28;20028;-71
2023/05/01 01:29:48;;;;;;;10.43;7.10;;;;;;;12.87;78.69;99344.59;5052006;28;20025;-72
2023/05/01 01:32:48;;;;;;;7.32;6.55;;;;;;;12.53;79.98;99355.97;5050867;28;20029;-72
2023/05/01 01:35:24;;;;;;;8.27;6.47;;;;;;;12.24;81.83;99360.63;5032144;28;20040;-71
2023/05/01 01:38:04;;;;;;;9.90;7.00;;;;;;;11.93;83.71;99356.34;5031431;28;20415;-72
2023/05/01 01:40:54;;;;;;;12.05;8.23;;;;;;;12.05;83.58;99353.59;5050057;28;20415;-71
2023/05/01 01:43:23;;;;;;;9.68;7.72;;;;;;;11.83;84.86;99351.19;5050451;28;20546;-71
2023/05/01 01:45:56;;;;;;;10.25;6.80;;;;;;;11.79;85.99;99351.91;5050625;28;20060;-71
2023/05/01 01:48:29;;;;;;;7.03;6.30;;;;;;;11.77;86.38;99347.78;5034657;28;20036;-71
2023/05/01 01:50:58;;;;;;;10.50;7.38;;;;;;;11.76;86.45;99346.16;5034936;28;20025;-71
2023/05/01 01:53:25;;;;;;;9.23;7.20;;;;;;;12.02;85.94;99347.88;5047268;28;20458;-71
2023/05/01 01:55:53;;;;;;;8.05;6.78;;;;;;;12.21;84.63;99345.34;5048406;28;20400;-72
2023/05/01 01:58:24;;;;;;;8.38;6.82;;;;;;;12.15;84.50;99346.72;5048499;28;20510;-71
2023/05/01 02:00:52;;;;;;;8.50;6.85;;;;;;;12.17;84.15;99350.00;5051569;28;20021;-71
2023/05/01 02:03:20;;;;;;;8.45;6.50;;;;;;;12.26;83.42;99351.88;5051674;28;20078;-71
2023/05/01 02:05:47;;;;;;;7.90;6.30;;;;;;;12.15;83.55;99348.72;5051580;28;20090;-71
2023/05/01 02:08:15;;;;;;;9.18;6.90;;;;;;;12.24;83.28;99362.63;5048981;28;20107;-71
2023/05/01 02:10:43;;;;;;;8.30;6.35;;;;;;;12.43;82.44;99364.84;5050314;28;20083;-72
2023/05/01 02:13:10;;;;;;;8.05;6.97;;;;;;;12.45;81.29;99348.50;5051474;28;20039;-71
2023/05/01 02:15:39;;;;;;;10.40;7.13;;;;;;;12.59;80.88;99348.16;5051454;28;20025;-71
2023/05/01 02:18:05;;;;;;;8.38;6.95;;;;;;;12.58;80.73;99350.13;5049169;28;20033;-71
2023/05/01 02:20:32;;;;;;;9.35;6.53;;;;;;;12.65;79.89;99346.72;5051209;28;20504;-71
2023/05/01 02:22:58;;;;;;;8.05;6.57;;;;;;;12.70;79.17;99343.69;5045891;28;20095;-71
2023/05/01 02:25:24;;;;;;;9.70;6.63;;;;;;;12.54;78.52;99346.38;5049701;28;20114;-71
2023/05/01 02:27:55;;;;;;;7.95;6.22;;;;;;;12.49;78.52;99349.44;5049787;28;20021;-71
2023/05/01 02:30:21;;;;;;;7.57;5.85;;;;;;;12.34;78.94;99356.56;5051219;28;20036;-71
2023/05/01 02:32:46;;;;;;;6.65;5.80;;;;;;;11.94;81.67;99356.03;5051319;28;20515;-71
2023/05/01 02:35:12;;;;;;;9.45;6.68;;;;;;;11.79;82.81;99354.69;5050973;28;20029;-71
2023/05/01 02:37:38;;;;;;;7.55;5.97;;;;;;;12.02;81.90;99364.69;5042487;28;20029;-71
2023/05/01 02:40:06;;;;;;;12.00;6.50;;;;;;;12.08;81.13;99366.13;5037822;28;20472;-71
2023/05/01 02:42:34;;;;;;;9.27;6.85;;;;;;;11.77;82.48;99364.59;5049879;28;20224;-71
2023/05/01 02:45:03;;;;;;;8.82;6.38;;;;;;;11.66;83.48;99365.03;5050974;28;20435;-71
2023/05/01 02:47:32;;;;;;;23.05;7.35;;;;;;;11.55;83.93;99375.03;5049852;28;20029;-71
2023/05/01 02:49:58;;;;;;;8.18;6.80;;;;;;;11.45;84.74;99367.88;5049947;28;20469;-71
2023/05/01 02:52:24;;;;;;;9.55;7.18;;;;;;;11.28;85.03;99365.22;5049078;28;20152;-71
2023/05/01 02:54:50;;;;;;;11.52;7.85;;;;;;;11.17;85.97;99368.47;5051582;28;20506;-71
2023/05/01 02:57:16;;;;;;;10.90;8.25;;;;;;;11.09;85.91;99375.72;5051476;28;20033;-71
2023/05/01 02:59:42;;;;;;;9.95;7.30;;;;;;;11.14;85.72;99379.50;5050319;28;20021;-71
2023/05/01 03:02:08;;;;;;;12.80;8.18;;;;;;;11.19;85.53;99368.09;5050334;28;20035;-71
2023/05/01 03:04:33;;;;;;;8.93;7.63;;;;;;;10.98;85.51;99385.72;5049794;28;20443;-71
2023/05/01 03:06:59;;;;;;;10.18;7.57;;;;;;;10.90;86.87;99375.41;5049099;28;20044;-72
2023/05/01 03:09:24;;;;;;;10.75;9.25;;;;;;;10.88;87.15;99370.13;5032595;28;20475;-72
2023/05/01 03:11:50;;;;;;;14.40;8.52;;;;;;;10.82;87.73;99371.50;5034905;28;20496;-71
2023/05/01 03:14:15;;;;;;;11.23;8.60;;;;;;;10.93;87.29;99378.34;5029753;28;20550;-71
2023/05/01 03:16:41;;;;;;;11.43;8.27;;;;;;;11.16;86.39;99365.97;5043886;28;20107;-71
2023/05/01 03:19:06;;;;;;;8.77;7.88;;;;;;;11.26;85.37;99371.19;5040181;28;20029;-72
2023/05/01 03:21:33;;;;;;;16.08;9.15;;;;;;;11.15;85.24;99369.94;5040260;28;20025;-71
2023/05/01 03:23:58;;;;;;;22.10;9.15;;;;;;;11.05;85.97;99369.19;5043335;28;20487;-71
2023/05/01 03:26:25;;;;;;;15.75;8.73;;;;;;;11.20;85.72;99366.94;5040160;28;20067;-71
2023/05/01 03:28:50;;;;;;;13.02;7.82;;;;;;;11.47;84.44;99376.75;5049327;28;20025;-71
2023/05/01 03:31:16;;;;;;;13.18;9.02;;;;;;;11.64;83.36;99389.78;5047040;28;20032;-71
2023/05/01 03:33:41;;;;;;;12.77;7.30;;;;;;;11.81;82.60;99387.97;5030649;28;20037;-71
2023/05/01 03:36:10;;;;;;;20.17;8.40;;;;;;;11.91;81.98;99395.94;5030636;28;20021;-71
2023/05/01 03:38:35;;;;;;;17.55;8.73;;;;;;;11.95;81.05;99398.88;5029521;28;20476;-71
2023/05/01 03:41:01;;;;;;;14.95;8.07;;;;;;;12.13;79.99;99399.53;5031196;28;20039;-71
2023/05/01 03:43:26;;;;;;;19.42;8.45;;;;;;;12.20;79.64;99396.16;5030035;28;20111;-71
2023/05/01 03:45:51;;;;;;;11.45;7.70;;;;;;;12.32;79.29;99403.78;5030414;28;20515;-70
2023/05/01 03:48:18;;;;;;;19.52;8.35;;;;;;;12.42;78.90;99406.09;5047333;28;20538;-74
2023/05/01 03:50:44;;;;;;;13.48;9.23;;;;;;;12.57;78.25;99406.59;5034229;28;20037;-72
2023/05/01 03:53:10;;;;;;;13.57;9.07;;;;;;;12.67;78.05;99413.72;5034100;28;20018;-72
2023/05/01 03:55:35;;;;;;;12.90;9.48;;;;;;;12.70;77.43;99427.88;5033150;28;20086;-70
2023/05/01 03:58:01;;;;;;;16.20;9.55;;;;;;;12.82;76.56;99415.00;5032706;28;20088;-71
2023/05/01 04:00:27;;;;;;;17.38;9.63;;;;;;;12.95;76.40;99416.63;5034068;28;20032;-71
2023/05/01 04:02:52;;;;;;;14.20;8.98;;;;;;;13.00;76.26;99424.00;5035755;28;20543;-72
2023/05/01 04:05:20;;;;;;;14.68;9.57;;;;;;;13.16;75.53;99421.28;5054006;28;20032;-73
2023/05/01 04:07:45;;;;;;;11.07;8.85;;;;;;;13.31;74.88;99425.34;5051488;28;20357;-72
2023/05/01 04:10:11;;;;;;;12.65;8.93;;;;;;;13.46;73.99;99421.84;5051700;28;20029;-73
2023/05/01 04:12:36;;;;;;;12.73;9.02;;;;;;;13.55;73.04;99429.28;5052715;28;20446;-70
2023/05/01 04:15:06;;;;;;;13.43;9.75;;;;;;;13.74;72.20;99437.88;5053834;28;20439;-72
2023/05/01 04:17:31;;;;;;;14.37;10.60;;;;;;;13.83;70.49;99426.50;5052613;28;20025;-73
2023/05/01 04:19:57;;;;;;;19.15;8.25;;;;;;;13.79;70.96;99436.81;5049132;28;21008;-73
2023/05/01 04:22:22;;;;;;;13.30;8.65;;;;;;;13.90;70.25;99437.13;5037483;28;20013;-74
2023/05/01 04:24:48;;;;;;;9.25;7.05;;;;;;;14.00;70.43;99435.81;5049081;28;20025;-74
2023/05/01 04:27:14;;;;;;;18.48;8.35;;;;;;;13.95;69.36;99436.03;5033422;28;20034;-72
2023/05/01 04:29:40;;;;;;;10.68;8.35;;;;;;;14.10;69.29;99434.44;5030622;28;20041;-75
2023/05/01 04:32:06;;;;;;;13.10;8.18;;;;;;;14.37;68.79;99444.03;5030227;28;20076;-73
2023/05/01 04:34:31;;;;;;;12.15;7.13;;;;;;;14.53;67.23;99446.03;5030926;28;20502;-74
2023/05/01 04:36:57;;;;;;;9.60;6.55;;;;;;;14.69;66.74;99449.66;5031608;28;20017;-74
2023/05/01 04:39:23;;;;;;;10.13;6.68;;;;;;;14.96;66.01;99451.94;5031034;28;20021;-73
2023/05/01 04:41:48;;;;;;;11.65;7.53;;;;;;;14.94;65.96;99448.69;5036178;28;20094;-74
2023/05/01 04:44:14;;;;;;;13.75;6.88;;;;;;;15.20;65.11;99450.88;5048475;28;20048;-74
2023/05/01 04:46:39;;;;;;;17.60;7.05;;;;;;;15.30;64.77;99461.59;5034172;28;20156;-71
2023/05/01 04:49:05;;;;;;;8.20;6.68;;;;;;;15.30;65.14;99460.78;5038305;28;20025;-74
2023/05/01 04:51:30;;;;;;;8.15;5.45;;;;;;;15.15;65.50;99454.00;5034909;28;20026;-75
2023/05/01 04:53:56;;;;;;;10.35;6.82;;;;;;;14.98;66.70;99458.84;5036502;28;20040;-75
2023/05/01 04:56:23;;;;;;;12.50;8.65;;;;;;;15.04;66.57;99462.19;5044377;28;20510;-76
2023/05/01 04:58:48;;;;;;;14.23;9.20;;;;;;;14.97;66.99;99457.22;5042465;28;20516;-73
2023/05/01 05:01:14;;;;;;;23.90;13.05;;;;;;;15.08;66.31;99453.81;5040414;28;20087;-75
2023/05/01 05:03:39;;;;;;;27.83;12.45;;;;;;;15.27;65.82;99456.69;5039517;28;20032;-75
2023/05/01 05:06:05;;;;;;;22.48;12.00;;;;;;;15.38;65.00;99456.13;5038368;28;20143;-76
2023/05/01 05:08:50;;;;;;;10.25;7.22;;;;;;;15.08;64.00;99465.06;5031819;28;20025;-76
2023/05/01 05:11:17;;;;;;;8.68;6.28;;;;;;;14.64;64.59;99458.38;5031980;28;20435;-75
2023/05/01 05:13:43;;;;;;;18.23;10.02;;;;;;;14.95;64.96;99468.00;5041881;28;20021;-75
2023/05/01 05:16:09;;;;;;;14.88;7.43;;;;;;;14.91;64.20;99472.75;5035456;28;20132;-72
2023/05/01 05:18:34;;;;;;;9.70;6.78;;;;;;;15.14;63.94;99464.47;5043124;28;20016;-75
2023/05/01 05:21:03;;;;;;;8.05;5.60;;;;;;;14.90;64.12;99475.91;5052347;28;20087;-77
2023/05/01 05:23:29;;;;;;;5.85;5.15;;;;;;;14.80;63.16;99466.84;5052494;28;20025;-76
2023/05/01 05:25:56;;;;;;;8.30;5.78;;;;;;;15.02;62.87;99476.63;5035717;28;20029;-74
2023/05/01 05:28:22;;;;;;;9.60;6.38;;;;;;;15.08;63.00;99482.81;5047196;28;20064;-70
2023/05/01 05:30:48;;;;;;;7.13;5.45;;;;;;;15.20;62.54;99487.50;5050954;28;20061;-72
2023/05/01 05:33:13;;;;;;;8.38;5.70;;;;;;;15.09;61.99;99492.91;5049383;28;20396;-74
2023/05/01 05:35:39;;;;;;;7.75;6.10;;;;;;;14.86;63.68;99492.75;5028388;28;20717;-71
2023/05/01 05:38:05;;;;;;;7.93;5.07;;;;;;;15.26;62.27;99493.69;5040529;28;20020;-71
2023/05/01 05:40:31;;;;;;;10.60;5.05;;;;;;;15.61;60.29;99494.88;5046988;28;20496;-72
2023/05/01 05:42:56;;;;;;;11.55;4.78;;;;;;;15.86;60.11;99496.22;5039925;28;20029;-70
2023/05/01 05:45:22;;;;;;;9.30;5.28;;;;;;;15.95;59.33;99498.84;5051707;28;20075;-70
2023/05/01 05:47:48;;;;;;;5.22;4.70;;;;;;;16.33;57.71;99502.03;5041342;28;20025;-69
2023/05/01 05:50:13;;;;;;;5.15;4.07;;;;;;;16.64;56.51;99499.38;5049997;28;20487;-69
2023/05/01 05:52:39;;;;;;;6.32;4.55;;;;;;;16.68;55.60;99503.06;5036559;28;20021;-73
2023/05/01 05:55:05;;;;;;;5.65;4.10;;;;;;;17.21;53.30;99502.38;5035911;28;20025;-74
2023/05/01 05:57:30;;;;;;;7.15;4.30;;;;;;;17.51;53.27;99504.44;5034217;28;20022;-70
2023/05/01 05:59:56;;;;;;;8.05;4.00;;;;;;;17.64;53.19;99502.19;5044055;28;20419;-70
2023/05/01 06:02:22;;;;;;;6.80;4.60;;;;;;;17.50;52.96;99502.81;5042123;28;20021;-70
2023/05/01 06:04:47;;;;;;;8.25;4.45;;;;;;;17.11;54.41;99509.50;5034814;28;20116;-69
2023/05/01 06:07:12;;;;;;;5.95;4.25;;;;;;;16.80;55.92;99519.81;5046353;28;20052;-72
2023/05/01 06:09:38;;;;;;;4.60;4.20;;;;;;;17.03;54.63;99521.06;5046189;28;20021;-73
2023/05/01 06:12:04;;;;;;;4.70;4.28;;;;;;;16.52;55.78;99518.13;5038325;28;20033;-74
2023/05/01 06:14:30;;;;;;;11.45;4.45;;;;;;;16.87;55.63;99521.97;5040517;28;20025;-74
2023/05/01 06:16:55;;;;;;;8.20;4.22;;;;;;;17.24;54.37;99521.38;5035195;28;20040;-74
2023/05/01 06:19:21;;;;;;;6.45;4.50;;;;;;;17.77;53.69;99522.59;5032350;28;20025;-74
2023/05/01 06:21:46;;;;;;;6.82;4.53;;;;;;;17.96;53.60;99521.63;5034141;28;20502;-73
2023/05/01 06:24:12;;;;;;;7.35;4.57;;;;;;;18.37;53.44;99532.25;5040369;28;20079;-74
2023/05/01 06:26:37;;;;;;;5.15;4.22;;;;;;;18.04;54.11;99525.38;5030064;28;20060;-69
2023/05/01 06:29:03;;;;;;;5.20;4.70;;;;;;;17.68;54.24;99520.03;5037903;28;20037;-70
2023/05/01 06:31:28;;;;;;;8.48;4.25;;;;;;;18.10;52.43;99518.19;5035861;28;20036;-74
2023/05/01 06:33:57;;;;;;;12.98;10.20;;;;;;;18.29;52.08;99521.25;5036117;28;20116;-74
2023/05/01 06:36:22;;;;;;;5.70;4.30;;;;;;;17.60;52.43;99518.31;5040683;28;20089;-73
2023/05/01 06:38:48;;;;;;;11.45;6.75;;;;;;;18.00;52.62;99524.50;5029568;28;20148;-71
2023/05/01 06:41:15;;;;;;;10.13;7.38;;;;;;;18.43;52.59;99523.41;5032483;28;20037;-72
2023/05/01 06:43:40;;;;;;;58.95;43.72;;;;;;;18.69;50.98;99518.81;5025483;28;20063;-72
2023/05/01 06:46:06;;;;;;;7.35;5.82;;;;;;;18.19;52.63;99534.06;5037762;28;20029;-72
2023/05/01 06:48:31;;;;;;;5.53;4.75;;;;;;;18.01;52.97;99534.63;5045051;28;20654;-72
2023/05/01 06:50:56;;;;;;;11.48;5.20;;;;;;;18.24;52.52;99528.88;5040086;28;20496;-71
2023/05/01 06:53:22;;;;;;;5.22;4.70;;;;;;;18.33;51.78;99522.09;5032059;28;20512;-74
2023/05/01 06:55:48;;;;;;;6.28;5.00;;;;;;;18.55;51.51;99539.31;5037874;28;20036;-74
2023/05/01 06:58:14;;;;;;;5.53;4.93;;;;;;;18.94;51.42;99536.06;5024527;28;20049;-74
2023/05/01 07:00:39;;;;;;;19.80;6.10;;;;;;;19.16;49.79;99539.94;5029556;28;20396;-74
2023/05/01 07:03:05;;;;;;;12.98;4.97;;;;;;;19.00;49.00;99536.56;5042330;28;20083;-75
2023/05/01 07:05:30;;;;;;;6.85;4.75;;;;;;;19.15;48.69;99543.97;5042668;28;20079;-75
2023/05/01 07:07:56;;;;;;;6.25;4.50;;;;;;;19.41;48.39;99535.66;5050721;28;20036;-74
2023/05/01 07:10:21;;;;;;;6.68;4.63;;;;;;;19.00;49.35;99533.72;5048979;28;20388;-81
2023/05/01 07:12:46;;;;;;;7.05;4.57;;;;;;;18.88;48.97;99532.78;5029863;28;20022;-82
2023/05/01 07:15:15;;;;;;;6.60;4.75;;;;;;;18.80;48.74;99536.72;5030228;28;20515;-78
2023/05/01 07:17:40;;;;;;;7.18;5.15;;;;;;;18.56;49.74;99543.78;5030869;28;20114;-74
2023/05/01 07:20:06;;;;;;;6.85;5.15;;;;;;;18.16;50.12;99543.31;5032876;28;20045;-72
2023/05/01 07:22:31;;;;;;;7.97;4.75;;;;;;;18.73;49.89;99542.34;5034592;28;20419;-73
2023/05/01 07:24:57;;;;;;;5.28;4.18;;;;;;;18.67;48.98;99548.34;5034641;28;20415;-72
2023/05/01 07:27:23;;;;;;;9.20;4.68;;;;;;;18.88;49.98;99529.13;5034568;28;20530;-76
2023/05/01 07:29:49;;;;;;;17.17;13.30;;;;;;;19.79;48.20;99550.50;5034211;28;20083;-78
2023/05/01 07:32:15;;;;;;;5.53;5.00;;;;;;;19.74;48.32;99542.38;5040181;28;20480;-75
2023/05/01 07:34:40;;;;;;;9.13;5.38;;;;;;;20.16;47.12;99545.88;5045110;28;20079;-75
2023/05/01 07:37:05;;;;;;;12.38;5.05;;;;;;;20.59;47.34;99550.88;5052669;28;20024;-75
2023/05/01 07:39:31;;;;;;;8.73;4.65;;;;;;;20.70;45.18;99546.03;5053084;28;20146;-75
2023/05/01 07:41:57;;;;;;;5.22;4.20;;;;;;;20.31;46.99;99547.53;5053046;28;20021;-75
2023/05/01 07:44:23;;;;;;;17.83;5.18;;;;;;;20.14;46.64;99548.28;5054268;28;20073;-74
2023/05/01 07:46:48;;;;;;;10.85;5.65;;;;;;;19.89;48.20;99546.09;5047543;28;20120;-74
2023/05/01 07:49:13;;;;;;;29.80;21.50;;;;;;;20.67;46.00;99546.03;5035045;28;20037;-74
2023/05/01 07:51:39;;;;;;;16.80;5.28;;;;;;;21.10;46.07;99546.09;5033693;28;20021;-72
2023/05/01 07:54:04;;;;;;;10.00;4.88;;;;;;;20.57;44.95;99551.28;5034069;28;20029;-71
2023/05/01 07:56:30;;;;;;;7.22;4.32;;;;;;;20.72;44.90;99537.09;5033972;28;20480;-73
2023/05/01 07:58:56;;;;;;;5.28;4.35;;;;;;;20.75;44.77;99544.81;5032950;28;20506;-73
2023/05/01 08:01:22;;;;;;;8.75;4.60;;;;;;;21.34;45.21;99554.25;5042970;28;20037;-74
2023/05/01 08:03:47;;;;;;;8.27;5.22;;;;;;;21.60;43.71;99550.97;5053812;28;20020;-75
2023/05/01 08:06:13;;;;;;;8.73;4.78;;;;;;;21.95;43.48;99547.66;5050607;28;20032;-75
2023/05/01 08:08:39;;;;;;;5.20;4.40;;;;;;;21.99;42.34;99545.59;5033888;28;20025;-78
2023/05/01 08:11:06;;;;;;;17.55;9.88;;;;;;;22.22;42.98;99547.97;5033782;28;20025;-75
2023/05/01 08:13:31;;;;;;;25.80;20.90;;;;;;;22.21;42.42;99552.06;5033905;28;20023;-76
2023/05/01 08:16:06;;;;;;;11.43;7.88;;;;;;;22.60;41.99;99546.59;5039846;28;20119;-75
2023/05/01 08:18:31;;;;;;;6.63;4.53;;;;;;;21.92;41.31;99554.19;5053718;28;20017;-74
2023/05/01 08:20:57;;;;;;;7.65;4.30;;;;;;;21.78;40.48;99555.84;5053549;28;20025;-74
2023/05/01 08:23:24;;;;;;;26.55;5.85;;;;;;;22.40;42.08;99547.06;5049996;28;20029;-73
2023/05/01 08:25:50;;;;;;;28.48;5.88;;;;;;;22.71;41.46;99548.16;5032268;28;20488;-72
2023/05/01 08:28:20;;;;;;;79.68;22.25;;;;;;;22.71;39.12;99551.00;5033528;28;20072;-74
2023/05/01 08:30:45;;;;;;;8.27;4.28;;;;;;;22.48;38.28;99557.25;5032113;28;20021;-73
2023/05/01 08:33:11;;;;;;;9.15;3.55;;;;;;;22.20;38.64;99550.41;5033276;28;20026;-73
2023/05/01 08:35:36;;;;;;;3.58;3.17;;;;;;;22.68;37.35;99549.00;5033287;28;20150;-74
2023/05/01 08:38:02;;;;;;;9.35;4.45;;;;;;;22.24;38.50;99544.69;5048979;28;20411;-75
2023/05/01 08:40:32;;;;;;;8.45;5.60;;;;;;;22.71;38.63;99544.50;5053182;28;20488;-74
2023/05/01 08:43:00;;;;;;;11.70;3.90;;;;;;;22.95;38.34;99547.59;5037291;28;20135;-75
2023/05/01 08:45:27;;;;;;;5.57;3.85;;;;;;;23.45;39.02;99548.44;5031786;28;20041;-76
2023/05/01 08:47:54;;;;;;;4.93;3.72;;;;;;;23.83;38.11;99542.75;5033171;28;20025;-76
2023/05/01 08:50:21;;;;;;;8.43;3.60;;;;;;;22.61;38.16;99537.63;5032591;28;20164;-75
2023/05/01 08:52:50;;;;;;;6.90;3.78;;;;;;;23.18;39.41;99540.50;5037484;28;20116;-76
2023/05/01 08:55:15;;;;;;;6.70;4.00;;;;;;;23.38;38.61;99543.63;5033147;28;20053;-77
2023/05/01 08:57:45;;;;;;;3.80;3.50;;;;;;;23.37;36.46;99531.38;5033256;28;20060;-76
2023/05/01 09:00:17;;;;;;;5.70;3.22;;;;;;;23.38;35.79;99535.84;5035651;28;20053;-76
2023/05/01 09:02:44;;;;;;;8.40;4.10;;;;;;;23.24;36.23;99541.66;5043589;28;20033;-77
2023/05/01 09:05:10;;;;;;;8.35;2.78;;;;;;;23.36;34.66;99540.38;5052857;28;20514;-77
2023/05/01 09:07:36;;;;;;;4.43;2.80;;;;;;;23.43;34.22;99537.44;5051152;28;20058;-77
2023/05/01 09:10:05;;;;;;;6.50;2.85;;;;;;;23.18;35.13;99537.66;5035580;28;20040;-77
2023/05/01 09:12:34;;;;;;;31.80;15.73;;;;;;;23.51;34.85;99532.47;5031175;28;20021;-77
2023/05/01 09:15:01;;;;;;;6.80;3.67;;;;;;;23.90;35.62;99533.31;5034480;28;20025;-74
2023/05/01 09:17:29;;;;;;;7.70;4.05;;;;;;;23.97;34.50;99534.03;5050608;28;20039;-76
2023/05/01 09:19:55;;;;;;;4.78;3.00;;;;;;;24.08;33.72;99533.13;5052510;28;20021;-77
2023/05/01 09:22:21;;;;;;;5.15;3.38;;;;;;;24.36;33.33;99531.13;5036421;28;20471;-76
2023/05/01 09:24:46;;;;;;;6.35;3.33;;;;;;;24.31;33.86;99534.47;5032447;28;20496;-78
2023/05/01 09:27:13;;;;;;;4.25;2.65;;;;;;;24.11;32.56;99532.25;5031814;28;20453;-78
2023/05/01 09:29:41;;;;;;;5.13;2.85;;;;;;;24.53;33.63;99532.94;5032366;28;20030;-78
2023/05/01 09:32:21;;;;;;;10.18;3.45;;;;;;;24.54;31.80;99533.75;5031020;28;20025;-72
2023/05/01 09:34:48;;;;;;;10.70;3.33;;;;;;;24.11;32.70;99538.81;5030882;28;20389;-72
2023/05/01 09:37:27;;;;;;;6.63;2.80;;;;;;;24.34;31.95;99533.63;5042928;28;20043;-70
2023/05/01 09:40:05;;;;;;;6.70;2.85;;;;;;;24.37;32.00;99527.03;5050890;28;20029;-69
2023/05/01 09:42:31;;;;;;;6.18;3.35;;;;;;;24.31;33.00;99528.75;5046872;28;20030;-70
2023/05/01 09:45:02;;;;;;;11.65;3.58;;;;;;;24.10;32.85;99531.47;5031303;28;20129;-73
2023/05/01 09:47:29;;;;;;;6.93;3.60;;;;;;;24.16;33.25;99520.38;5031944;28;20021;-71
2023/05/01 09:49:56;;;;;;;6.78;3.30;;;;;;;24.02;33.30;99531.97;5031960;28;20036;-73
2023/05/01 09:52:26;;;;;;;9.35;3.85;;;;;;;24.23;33.02;99517.41;5048388;28;20028;-72
2023/05/01 09:55:10;;;;;;;10.20;3.85;;;;;;;24.25;32.75;99526.38;5052648;28;20059;-73
2023/05/01 09:57:37;;;;;;;25.23;5.78;;;;;;;24.16;33.87;99528.13;5050852;28;20029;-77
